createdAt,value
2019-03-03T00:03:49.580Z,24.23
2019-03-03T00:08:56.554Z,25.73
2019-03-03T00:14:03.615Z,25.30
2019-03-03T00:19:10.701Z,25.53
2019-03-03T00:24:17.707Z,25.53
2019-03-03T00:29:24.871Z,26.90
2019-03-03T00:34:33.106Z,25.77
2019-03-03T00:39:58.158Z,25.17
2019-03-03T00:45:24.305Z,24.00
2019-03-03T00:50:37.793Z,23.70
2019-03-03T00:56:07.306Z,21.50
2019-03-03T01:01:38.081Z,21.33
2019-03-03T01:07:10.425Z,20.40
2019-03-03T01:12:35.398Z,18.67
2019-03-03T01:17:51.166Z,17.27
2019-03-03T01:23:19.939Z,17.23
2019-03-03T01:28:26.856Z,16.17
2019-03-03T01:33:33.776Z,14.90
2019-03-03T01:38:40.714Z,13.67
2019-03-03T01:43:47.638Z,12.93
2019-03-03T01:48:54.658Z,13.53
2019-03-03T01:54:01.590Z,13.83
2019-03-03T01:59:08.654Z,12.63
2019-03-03T02:04:15.640Z,12.77
2019-03-03T02:09:22.896Z,11.67
2019-03-03T02:14:29.956Z,11.57
2019-03-03T02:19:37.344Z,10.93
2019-03-03T02:24:44.367Z,11.63
2019-03-03T02:29:51.281Z,10.23
2019-03-03T02:34:59.165Z,8.80
2019-03-03T02:40:06.918Z,8.67
2019-03-03T02:45:17.108Z,9.10
2019-03-03T02:50:25.561Z,8.63
2019-03-03T02:55:32.593Z,8.13
2019-03-03T03:00:47.048Z,8.33
2019-03-03T03:06:04.001Z,8.43
2019-03-03T03:11:30.828Z,8.20
2019-03-03T03:17:12.207Z,6.63
2019-03-03T03:22:29.244Z,6.50
2019-03-03T03:27:48.442Z,7.40
2019-03-03T03:33:04.519Z,6.97
2019-03-03T03:38:30.415Z,6.87
2019-03-03T03:43:56.616Z,6.17
2019-03-03T03:49:10.990Z,5.80
2019-03-03T03:54:44.120Z,6.00
2019-03-03T04:00:16.998Z,6.47
2019-03-03T04:05:30.436Z,5.53
2019-03-03T04:10:55.572Z,6.33
2019-03-03T04:16:21.523Z,5.40
2019-03-03T04:21:36.266Z,6.50
2019-03-03T04:26:52.803Z,6.67
2019-03-03T04:32:21.621Z,5.77
2019-03-03T04:37:46.590Z,6.70
2019-03-03T04:43:05.316Z,6.30
2019-03-03T04:48:21.426Z,6.77
2019-03-03T04:53:49.480Z,5.40
2019-03-03T04:59:13.172Z,5.80
2019-03-03T05:04:34.456Z,5.20
2019-03-03T05:10:08.565Z,5.07
2019-03-03T05:15:32.220Z,5.40
2019-03-03T05:20:47.128Z,5.37
2019-03-03T05:25:55.020Z,4.70
2019-03-03T05:31:02.059Z,5.47
2019-03-03T05:36:08.976Z,5.30
2019-03-03T05:41:15.940Z,5.60
2019-03-03T05:46:22.924Z,5.67
2019-03-03T05:51:29.869Z,5.07
2019-03-03T05:56:37.069Z,5.97
2019-03-03T06:01:43.991Z,5.97
2019-03-03T06:06:50.963Z,5.73
2019-03-03T06:11:57.910Z,6.60
2019-03-03T06:17:04.863Z,6.20
2019-03-03T06:22:11.769Z,5.87
2019-03-03T06:27:18.694Z,6.10
2019-03-03T06:32:25.592Z,6.50
2019-03-03T06:37:32.519Z,6.30
2019-03-03T06:42:39.586Z,6.53
2019-03-03T06:47:46.554Z,6.03
2019-03-03T06:52:53.582Z,6.10
2019-03-03T06:58:00.599Z,5.97
2019-03-03T07:03:07.490Z,5.53
2019-03-03T07:08:14.430Z,5.97
2019-03-03T07:13:21.346Z,5.67
2019-03-03T07:18:28.248Z,5.47
2019-03-03T07:23:35.226Z,6.07
2019-03-03T07:28:42.163Z,5.20
2019-03-03T07:33:53.101Z,5.47
2019-03-03T07:39:00.012Z,5.27
2019-03-03T07:44:06.925Z,5.13
2019-03-03T07:49:13.852Z,5.30
2019-03-03T07:54:20.796Z,6.77
2019-03-03T07:59:27.730Z,6.67
2019-03-03T08:04:34.746Z,5.53
2019-03-03T08:09:41.653Z,4.83
2019-03-03T08:14:48.565Z,5.30
2019-03-03T08:19:55.489Z,5.13
2019-03-03T08:25:02.526Z,5.50
2019-03-03T08:30:10.064Z,5.00
2019-03-03T08:35:17.043Z,4.93
2019-03-03T08:40:24.060Z,5.40
2019-03-03T08:45:50.424Z,5.13
2019-03-03T08:51:02.094Z,5.37
2019-03-03T08:56:22.109Z,6.23
2019-03-03T09:01:40.125Z,4.90
2019-03-03T09:06:57.804Z,5.27
2019-03-03T09:12:22.692Z,4.63
2019-03-03T09:17:44.543Z,4.67
2019-03-03T09:22:58.214Z,4.47
2019-03-03T09:28:23.122Z,4.77
2019-03-03T09:33:46.205Z,4.87
2019-03-03T09:39:11.317Z,4.57
2019-03-03T09:44:38.982Z,4.77
2019-03-03T09:50:03.845Z,4.77
2019-03-03T09:55:17.373Z,4.90
2019-03-03T10:00:33.862Z,5.07
2019-03-03T10:05:53.341Z,4.87
2019-03-03T10:11:22.375Z,4.87
2019-03-03T10:16:37.003Z,6.03
2019-03-03T10:22:01.756Z,4.63
2019-03-03T10:27:19.496Z,4.50
2019-03-03T10:32:44.332Z,4.10
2019-03-03T10:38:00.790Z,4.13
2019-03-03T10:43:35.720Z,4.53
2019-03-03T10:48:56.904Z,4.87
2019-03-03T10:54:22.879Z,4.70
2019-03-03T10:59:39.996Z,4.10
2019-03-03T11:05:00.794Z,4.10
2019-03-03T11:10:19.161Z,4.17
2019-03-03T11:15:38.989Z,5.50
2019-03-03T11:21:05.261Z,4.43
2019-03-03T11:26:19.267Z,4.60
2019-03-03T11:31:33.278Z,4.97
2019-03-03T11:36:45.840Z,3.83
2019-03-03T11:42:18.114Z,4.80
2019-03-03T11:47:41.954Z,4.77
2019-03-03T11:53:02.571Z,4.60
2019-03-03T11:58:31.049Z,4.67
2019-03-03T12:03:55.781Z,3.80
2019-03-03T12:09:20.603Z,4.40
2019-03-03T12:14:35.651Z,4.50
2019-03-03T12:20:01.705Z,5.30
2019-03-03T12:25:28.373Z,5.33
2019-03-03T12:30:48.743Z,4.57
2019-03-03T12:36:20.521Z,4.00
2019-03-03T12:41:45.214Z,4.77
2019-03-03T12:47:11.149Z,4.57
2019-03-03T12:52:45.200Z,4.63
2019-03-03T12:58:09.997Z,4.43
2019-03-03T13:03:25.304Z,4.33
2019-03-03T13:08:45.410Z,4.33
2019-03-03T13:19:36.275Z,4.30
2019-03-03T13:25:05.181Z,4.20
2019-03-03T13:30:32.073Z,4.40
2019-03-03T13:36:09.243Z,4.30
2019-03-03T13:41:29.357Z,3.73
2019-03-03T13:46:36.283Z,7.30
2019-03-03T13:51:43.785Z,3.87
2019-03-03T13:56:50.967Z,3.87
2019-03-03T14:01:58.101Z,4.30
2019-03-03T14:07:05.486Z,4.10
2019-03-03T14:12:12.491Z,3.60
2019-03-03T14:17:20.160Z,4.07
2019-03-03T14:22:27.147Z,4.23
2019-03-03T14:27:34.116Z,3.80
2019-03-03T14:32:41.173Z,4.40
2019-03-03T14:37:48.102Z,4.17
2019-03-03T14:42:55.617Z,4.17
2019-03-03T14:48:02.532Z,5.17
2019-03-03T14:53:09.598Z,3.90
2019-03-03T14:58:17.624Z,4.60
2019-03-03T15:03:24.529Z,4.13
2019-03-03T15:08:31.517Z,4.30
2019-03-03T15:13:38.823Z,4.07
2019-03-03T15:18:45.874Z,4.43
2019-03-03T15:23:52.789Z,4.03
2019-03-03T15:29:00.427Z,4.57
2019-03-03T15:34:07.416Z,4.33
2019-03-03T15:39:14.837Z,3.73
2019-03-03T15:44:21.877Z,4.30
2019-03-03T15:49:28.796Z,3.90
2019-03-03T15:54:35.747Z,4.33
2019-03-03T15:59:42.690Z,4.40
2019-03-03T16:04:49.843Z,5.13
2019-03-03T16:09:56.988Z,4.17
2019-03-03T16:15:04.658Z,4.07
2019-03-03T16:20:14.591Z,4.03
2019-03-03T16:25:21.856Z,4.03
2019-03-03T16:30:28.860Z,4.60
2019-03-03T16:35:35.981Z,4.20
2019-03-03T16:40:43.016Z,4.27
2019-03-03T16:45:50.480Z,4.10
2019-03-03T16:50:57.470Z,4.50
2019-03-03T16:56:05.383Z,4.27
2019-03-03T17:01:12.286Z,4.37
2019-03-03T17:06:19.240Z,3.80
2019-03-03T17:11:26.208Z,4.07
2019-03-03T17:16:33.120Z,4.50
2019-03-03T17:21:40.053Z,4.50
2019-03-03T17:26:47.048Z,4.47
2019-03-03T17:31:53.962Z,4.70
2019-03-03T17:37:00.909Z,4.10
2019-03-03T17:42:07.824Z,3.87
2019-03-03T17:47:14.827Z,4.20
2019-03-03T17:52:21.816Z,4.27
2019-03-03T17:57:28.746Z,4.50
2019-03-03T18:02:35.733Z,4.70
2019-03-03T18:07:42.952Z,3.83
2019-03-03T18:12:50.021Z,4.50
2019-03-03T18:17:57.845Z,3.77
2019-03-03T18:23:04.957Z,3.27
2019-03-03T18:28:11.877Z,4.00
2019-03-03T18:33:18.778Z,3.67
2019-03-03T18:38:26.100Z,3.30
2019-03-03T18:43:33.114Z,3.90
2019-03-03T18:48:40.215Z,3.83
2019-03-03T18:53:47.224Z,3.40
2019-03-03T18:58:54.300Z,3.83
2019-03-03T19:04:01.286Z,3.87
2019-03-03T19:09:10.865Z,3.67
2019-03-03T19:14:27.836Z,3.83
2019-03-03T19:19:26.847Z,4.47
2019-03-03T19:24:33.811Z,4.00
2019-03-03T19:29:40.955Z,4.27
2019-03-03T19:34:47.959Z,4.27
2019-03-03T19:39:55.072Z,3.67
2019-03-03T19:45:02.143Z,3.70
2019-03-03T19:50:11.695Z,4.40
2019-03-03T19:55:18.847Z,4.73
2019-03-03T20:00:35.383Z,4.20
2019-03-03T20:05:37.921Z,3.40
2019-03-03T20:10:44.903Z,4.33
2019-03-03T20:15:51.966Z,4.33
2019-03-03T20:20:58.909Z,3.57
2019-03-03T20:26:06.662Z,3.67
2019-03-03T20:31:13.789Z,3.40
2019-03-03T20:36:21.852Z,3.13
2019-03-03T20:41:28.841Z,3.70
2019-03-03T20:46:35.808Z,2.93
2019-03-03T20:51:42.752Z,3.20
2019-03-03T20:56:49.741Z,3.60
2019-03-03T21:01:56.685Z,3.53
2019-03-03T21:07:03.700Z,3.00
2019-03-03T21:12:10.821Z,3.70
2019-03-03T21:17:17.878Z,3.83
2019-03-03T21:22:24.900Z,4.07
2019-03-03T21:27:31.889Z,4.10
2019-03-03T21:32:38.822Z,3.40
2019-03-03T21:37:46.272Z,3.40
2019-03-03T21:42:53.411Z,3.27
2019-03-03T21:48:00.434Z,3.93
2019-03-03T21:53:08.478Z,3.40
2019-03-03T21:58:16.545Z,3.80
2019-03-03T22:03:23.498Z,4.20
2019-03-03T22:08:30.430Z,4.13
2019-03-03T22:13:37.427Z,4.20
2019-03-03T22:18:44.386Z,3.77
2019-03-03T22:23:51.322Z,4.10
2019-03-03T22:28:58.280Z,4.03
2019-03-03T22:34:05.333Z,3.87
2019-03-03T22:39:12.337Z,3.60
2019-03-03T22:44:19.288Z,4.40
2019-03-03T22:49:27.389Z,4.20
2019-03-03T22:54:34.384Z,4.20
2019-03-03T22:59:41.313Z,4.17
2019-03-03T23:05:32.822Z,4.33
2019-03-03T23:11:11.794Z,4.03
2019-03-03T23:16:58.271Z,4.07
2019-03-03T23:22:39.226Z,4.30
2019-03-03T23:27:46.248Z,4.20
2019-03-03T23:32:53.509Z,3.70
2019-03-03T23:38:00.467Z,3.50
2019-03-03T23:43:08.173Z,3.87
2019-03-03T23:48:16.895Z,3.93
2019-03-03T23:53:23.847Z,4.27
2019-03-03T23:58:30.867Z,3.90
